sensor_id;sensor_type;location;lat;lon;timestamp;P1;durP1;ratioP1;P2;durP2;ratioP2
24008;SDS011;12217;50.792;4.372;2023-05-10T00:01:55;16.65;;;10.13;;
24008;SDS011;12217;50.792;4.372;2023-05-10T00:04:21;15.98;;;10.55;;
24008;SDS011;12217;50.792;4.372;2023-05-10T00:06:47;16.23;;;10.25;;
24008;SDS011;12217;50.792;4.372;2023-05-10T00:09:12;18.10;;;9.70;;
24008;SDS011;12217;50.792;4.372;2023-05-10T00:11:38;17.88;;;10.55;;
24008;SDS011;12217;50.792;4.372;2023-05-10T00:14:04;17.75;;;11.00;;
24008;SDS011;12217;50.792;4.372;2023-05-10T00:16:29;18.35;;;11.57;;
24008;SDS011;12217;50.792;4.372;2023-05-10T00:18:55;16.60;;;10.95;;
24008;SDS011;12217;50.792;4.372;2023-05-10T00:21:21;16.85;;;12.20;;
24008;SDS011;12217;50.792;4.372;2023-05-10T00:23:46;17.83;;;10.65;;
24008;SDS011;12217;50.792;4.372;2023-05-10T00:26:12;14.88;;;11.30;;
24008;SDS011;12217;50.792;4.372;2023-05-10T00:28:38;19.52;;;11.50;;
24008;SDS011;12217;50.792;4.372;2023-05-10T00:31:03;21.33;;;12.27;;
24008;SDS011;12217;50.792;4.372;2023-05-10T00:33:29;21.02;;;11.82;;
24008;SDS011;12217;50.792;4.372;2023-05-10T00:35:55;18.77;;;12.75;;
24008;SDS011;12217;50.792;4.372;2023-05-10T00:38:21;18.17;;;12.13;;
24008;SDS011;12217;50.792;4.372;2023-05-10T00:40:46;19.92;;;11.80;;
24008;SDS011;12217;50.792;4.372;2023-05-10T00:43:12;21.35;;;12.35;;
24008;SDS011;12217;50.792;4.372;2023-05-10T00:45:38;22.17;;;13.75;;
24008;SDS011;12217;50.792;4.372;2023-05-10T00:48:05;22.17;;;13.55;;
24008;SDS011;12217;50.792;4.372;2023-05-10T00:50:31;21.17;;;13.93;;
24008;SDS011;12217;50.792;4.372;2023-05-10T00:52:58;22.90;;;13.93;;
24008;SDS011;12217;50.792;4.372;2023-05-10T00:55:25;21.67;;;13.65;;
24008;SDS011;12217;50.792;4.372;2023-05-10T00:57:51;22.10;;;13.80;;
24008;SDS011;12217;50.792;4.372;2023-05-10T01:00:18;22.92;;;14.48;;
24008;SDS011;12217;50.792;4.372;2023-05-10T01:02:44;22.75;;;14.20;;
24008;SDS011;12217;50.792;4.372;2023-05-10T01:05:11;19.25;;;13.80;;
24008;SDS011;12217;50.792;4.372;2023-05-10T01:07:37;22.35;;;14.48;;
24008;SDS011;12217;50.792;4.372;2023-05-10T01:10:02;21.85;;;14.60;;
24008;SDS011;12217;50.792;4.372;2023-05-10T01:12:28;20.58;;;14.23;;
24008;SDS011;12217;50.792;4.372;2023-05-10T01:14:55;21.20;;;13.80;;
24008;SDS011;12217;50.792;4.372;2023-05-10T01:17:20;23.48;;;14.38;;
24008;SDS011;12217;50.792;4.372;2023-05-10T01:19:47;21.98;;;14.15;;
24008;SDS011;12217;50.792;4.372;2023-05-10T01:30:25;23.83;;;15.32;;
24008;SDS011;12217;50.792;4.372;2023-05-10T01:33:18;23.35;;;15.18;;
24008;SDS011;12217;50.792;4.372;2023-05-10T01:35:47;21.25;;;15.23;;
24008;SDS011;12217;50.792;4.372;2023-05-10T01:47:12;20.08;;;15.82;;
24008;SDS011;12217;50.792;4.372;2023-05-10T01:49:43;21.55;;;15.23;;
24008;SDS011;12217;50.792;4.372;2023-05-10T01:52:15;26.10;;;16.42;;
24008;SDS011;12217;50.792;4.372;2023-05-10T01:54:49;22.95;;;16.65;;
24008;SDS011;12217;50.792;4.372;2023-05-10T01:57:21;22.98;;;15.40;;
24008;SDS011;12217;50.792;4.372;2023-05-10T01:59:50;25.13;;;17.10;;
24008;SDS011;12217;50.792;4.372;2023-05-10T02:02:18;22.38;;;15.93;;
24008;SDS011;12217;50.792;4.372;2023-05-10T02:04:46;25.38;;;17.23;;
24008;SDS011;12217;50.792;4.372;2023-05-10T02:07:14;25.17;;;17.08;;
24008;SDS011;12217;50.792;4.372;2023-05-10T02:09:41;24.73;;;16.70;;
24008;SDS011;12217;50.792;4.372;2023-05-10T02:12:12;25.83;;;15.15;;
24008;SDS011;12217;50.792;4.372;2023-05-10T02:14:40;22.67;;;16.55;;
24008;SDS011;12217;50.792;4.372;2023-05-10T02:17:07;25.33;;;16.67;;
24008;SDS011;12217;50.792;4.372;2023-05-10T02:19:35;23.80;;;16.25;;
24008;SDS011;12217;50.792;4.372;2023-05-10T02:22:02;24.05;;;16.08;;
24008;SDS011;12217;50.792;4.372;2023-05-10T02:24:29;22.65;;;14.20;;
24008;SDS011;12217;50.792;4.372;2023-05-10T02:26:55;22.85;;;14.50;;
24008;SDS011;12217;50.792;4.372;2023-05-10T02:29:23;19.92;;;13.20;;
24008;SDS011;12217;50.792;4.372;2023-05-10T02:31:51;22.50;;;14.52;;
24008;SDS011;12217;50.792;4.372;2023-05-10T02:34:19;23.63;;;14.25;;
24008;SDS011;12217;50.792;4.372;2023-05-10T02:36:47;20.90;;;14.05;;
24008;SDS011;12217;50.792;4.372;2023-05-10T02:39:13;25.25;;;14.40;;
24008;SDS011;12217;50.792;4.372;2023-05-10T02:41:41;19.40;;;13.75;;
24008;SDS011;12217;50.792;4.372;2023-05-10T02:44:08;19.85;;;13.10;;
24008;SDS011;12217;50.792;4.372;2023-05-10T02:46:35;18.55;;;13.55;;
24008;SDS011;12217;50.792;4.372;2023-05-10T02:49:02;19.38;;;13.30;;
24008;SDS011;12217;50.792;4.372;2023-05-10T02:51:30;20.55;;;13.88;;
24008;SDS011;12217;50.792;4.372;2023-05-10T02:53:59;20.45;;;13.18;;
24008;SDS011;12217;50.792;4.372;2023-05-10T02:56:33;21.23;;;13.43;;
24008;SDS011;12217;50.792;4.372;2023-05-10T02:59:00;19.55;;;13.13;;
24008;SDS011;12217;50.792;4.372;2023-05-10T03:01:26;23.42;;;14.10;;
24008;SDS011;12217;50.792;4.372;2023-05-10T03:03:52;22.95;;;14.45;;
24008;SDS011;12217;50.792;4.372;2023-05-10T03:06:17;20.75;;;14.50;;
24008;SDS011;12217;50.792;4.372;2023-05-10T03:08:43;20.02;;;13.93;;
24008;SDS011;12217;50.792;4.372;2023-05-10T03:16:23;24.85;;;15.43;;
24008;SDS011;12217;50.792;4.372;2023-05-10T03:19:01;26.35;;;16.73;;
24008;SDS011;12217;50.792;4.372;2023-05-10T03:21:32;26.35;;;15.93;;
24008;SDS011;12217;50.792;4.372;2023-05-10T03:24:05;26.42;;;16.83;;
24008;SDS011;12217;50.792;4.372;2023-05-10T03:26:32;26.48;;;16.40;;
24008;SDS011;12217;50.792;4.372;2023-05-10T03:28:59;28.08;;;17.40;;
24008;SDS011;12217;50.792;4.372;2023-05-10T03:31:25;26.00;;;17.05;;
24008;SDS011;12217;50.792;4.372;2023-05-10T03:33:53;27.40;;;18.35;;
24008;SDS011;12217;50.792;4.372;2023-05-10T03:36:19;23.55;;;16.63;;
24008;SDS011;12217;50.792;4.372;2023-05-10T03:38:45;27.45;;;18.40;;
24008;SDS011;12217;50.792;4.372;2023-05-10T03:41:10;26.55;;;16.95;;
24008;SDS011;12217;50.792;4.372;2023-05-10T03:43:36;30.35;;;17.77;;
24008;SDS011;12217;50.792;4.372;2023-05-10T03:46:02;27.13;;;17.42;;
24008;SDS011;12217;50.792;4.372;2023-05-10T03:48:28;27.30;;;17.27;;
24008;SDS011;12217;50.792;4.372;2023-05-10T03:50:54;28.27;;;17.60;;
24008;SDS011;12217;50.792;4.372;2023-05-10T03:53:20;28.33;;;17.13;;
24008;SDS011;12217;50.792;4.372;2023-05-10T03:55:46;26.88;;;16.77;;
24008;SDS011;12217;50.792;4.372;2023-05-10T03:58:11;27.88;;;18.08;;
24008;SDS011;12217;50.792;4.372;2023-05-10T04:00:37;29.38;;;18.95;;
24008;SDS011;12217;50.792;4.372;2023-05-10T04:03:08;28.67;;;17.70;;
24008;SDS011;12217;50.792;4.372;2023-05-10T04:05:34;32.58;;;19.20;;
24008;SDS011;12217;50.792;4.372;2023-05-10T04:08:00;30.55;;;18.95;;
24008;SDS011;12217;50.792;4.372;2023-05-10T04:10:26;24.35;;;17.60;;
24008;SDS011;12217;50.792;4.372;2023-05-10T04:12:51;30.13;;;18.73;;
24008;SDS011;12217;50.792;4.372;2023-05-10T04:15:17;24.77;;;17.38;;
24008;SDS011;12217;50.792;4.372;2023-05-10T04:17:43;26.77;;;17.73;;
24008;SDS011;12217;50.792;4.372;2023-05-10T04:20:08;27.50;;;17.73;;
24008;SDS011;12217;50.792;4.372;2023-05-10T04:22:34;26.85;;;16.83;;
24008;SDS011;12217;50.792;4.372;2023-05-10T04:25:00;23.67;;;16.38;;
24008;SDS011;12217;50.792;4.372;2023-05-10T04:27:26;24.55;;;15.98;;
24008;SDS011;12217;50.792;4.372;2023-05-10T04:29:52;22.85;;;14.95;;
24008;SDS011;12217;50.792;4.372;2023-05-10T04:32:18;22.83;;;15.38;;
24008;SDS011;12217;50.792;4.372;2023-05-10T04:34:44;24.23;;;15.88;;
24008;SDS011;12217;50.792;4.372;2023-05-10T04:37:09;19.40;;;14.27;;
24008;SDS011;12217;50.792;4.372;2023-05-10T04:39:35;20.17;;;13.25;;
24008;SDS011;12217;50.792;4.372;2023-05-10T04:42:02;22.00;;;12.90;;
24008;SDS011;12217;50.792;4.372;2023-05-10T04:44:28;17.90;;;12.73;;
24008;SDS011;12217;50.792;4.372;2023-05-10T04:46:54;22.85;;;13.13;;
24008;SDS011;12217;50.792;4.372;2023-05-10T04:49:20;19.52;;;12.40;;
24008;SDS011;12217;50.792;4.372;2023-05-10T04:51:45;17.85;;;11.95;;
24008;SDS011;12217;50.792;4.372;2023-05-10T04:54:11;14.48;;;10.68;;
24008;SDS011;12217;50.792;4.372;2023-05-10T04:56:37;15.70;;;9.57;;
24008;SDS011;12217;50.792;4.372;2023-05-10T04:59:03;14.27;;;10.50;;
24008;SDS011;12217;50.792;4.372;2023-05-10T05:01:29;17.52;;;10.60;;
24008;SDS011;12217;50.792;4.372;2023-05-10T05:03:54;15.65;;;10.02;;
24008;SDS011;12217;50.792;4.372;2023-05-10T05:06:20;15.05;;;10.07;;
24008;SDS011;12217;50.792;4.372;2023-05-10T05:08:46;16.85;;;10.57;;
24008;SDS011;12217;50.792;4.372;2023-05-10T05:11:11;18.02;;;10.30;;
24008;SDS011;12217;50.792;4.372;2023-05-10T05:13:37;16.20;;;10.60;;
24008;SDS011;12217;50.792;4.372;2023-05-10T05:16:04;14.60;;;10.95;;
24008;SDS011;12217;50.792;4.372;2023-05-10T05:18:30;15.70;;;10.95;;
24008;SDS011;12217;50.792;4.372;2023-05-10T05:20:56;17.60;;;10.98;;
24008;SDS011;12217;50.792;4.372;2023-05-10T05:23:21;12.95;;;10.18;;
24008;SDS011;12217;50.792;4.372;2023-05-10T05:25:50;18.42;;;11.88;;
24008;SDS011;12217;50.792;4.372;2023-05-10T05:28:17;16.05;;;11.70;;
24008;SDS011;12217;50.792;4.372;2023-05-10T05:30:43;16.92;;;10.30;;
24008;SDS011;12217;50.792;4.372;2023-05-10T05:33:08;16.30;;;11.68;;
24008;SDS011;12217;50.792;4.372;2023-05-10T05:35:34;18.85;;;11.85;;
24008;SDS011;12217;50.792;4.372;2023-05-10T05:38:00;17.83;;;11.07;;
24008;SDS011;12217;50.792;4.372;2023-05-10T05:40:25;18.27;;;12.45;;
24008;SDS011;12217;50.792;4.372;2023-05-10T05:42:51;14.80;;;11.65;;
24008;SDS011;12217;50.792;4.372;2023-05-10T05:45:17;19.33;;;11.73;;
24008;SDS011;12217;50.792;4.372;2023-05-10T05:47:43;18.90;;;11.75;;
24008;SDS011;12217;50.792;4.372;2023-05-10T05:50:08;20.58;;;12.20;;
24008;SDS011;12217;50.792;4.372;2023-05-10T05:52:34;16.33;;;9.90;;
24008;SDS011;12217;50.792;4.372;2023-05-10T05:55:00;17.48;;;9.98;;
24008;SDS011;12217;50.792;4.372;2023-05-10T05:57:26;14.48;;;8.90;;
24008;SDS011;12217;50.792;4.372;2023-05-10T05:59:52;12.50;;;8.13;;
24008;SDS011;12217;50.792;4.372;2023-05-10T06:02:17;16.48;;;8.80;;
24008;SDS011;12217;50.792;4.372;2023-05-10T06:04:43;15.95;;;8.57;;
24008;SDS011;12217;50.792;4.372;2023-05-10T06:07:09;14.90;;;8.18;;
24008;SDS011;12217;50.792;4.372;2023-05-10T06:09:34;12.77;;;7.57;;
24008;SDS011;12217;50.792;4.372;2023-05-10T06:12:00;11.48;;;7.55;;
24008;SDS011;12217;50.792;4.372;2023-05-10T06:14:26;13.20;;;8.35;;
24008;SDS011;12217;50.792;4.372;2023-05-10T06:16:52;12.15;;;8.35;;
24008;SDS011;12217;50.792;4.372;2023-05-10T06:19:18;13.90;;;8.75;;
24008;SDS011;12217;50.792;4.372;2023-05-10T06:21:43;11.68;;;8.63;;
24008;SDS011;12217;50.792;4.372;2023-05-10T06:24:09;13.25;;;8.55;;
24008;SDS011;12217;50.792;4.372;2023-05-10T06:26:35;10.02;;;7.70;;
24008;SDS011;12217;50.792;4.372;2023-05-10T06:29:00;15.80;;;8.57;;
24008;SDS011;12217;50.792;4.372;2023-05-10T06:31:26;10.05;;;7.50;;
24008;SDS011;12217;50.792;4.372;2023-05-10T06:33:52;10.90;;;7.35;;
24008;SDS011;12217;50.792;4.372;2023-05-10T06:36:17;10.50;;;7.00;;
24008;SDS011;12217;50.792;4.372;2023-05-10T06:38:43;7.90;;;6.20;;
24008;SDS011;12217;50.792;4.372;2023-05-10T06:41:09;7.45;;;6.10;;
24008;SDS011;12217;50.792;4.372;2023-05-10T06:43:34;7.15;;;5.80;;
24008;SDS011;12217;50.792;4.372;2023-05-10T06:46:00;7.00;;;5.93;;
24008;SDS011;12217;50.792;4.372;2023-05-10T06:48:26;7.80;;;5.63;;
24008;SDS011;12217;50.792;4.372;2023-05-10T06:50:51;15.45;;;5.90;;
24008;SDS011;12217;50.792;4.372;2023-05-10T06:53:17;8.60;;;5.95;;
24008;SDS011;12217;50.792;4.372;2023-05-10T06:55:42;7.18;;;5.93;;
24008;SDS011;12217;50.792;4.372;2023-05-10T06:58:08;8.20;;;6.10;;
24008;SDS011;12217;50.792;4.372;2023-05-10T07:00:34;8.80;;;6.05;;
24008;SDS011;12217;50.792;4.372;2023-05-10T07:03:00;8.20;;;6.28;;
24008;SDS011;12217;50.792;4.372;2023-05-10T07:05:26;8.40;;;6.35;;
24008;SDS011;12217;50.792;4.372;2023-05-10T07:07:52;9.50;;;5.97;;
24008;SDS011;12217;50.792;4.372;2023-05-10T07:10:18;8.85;;;6.43;;
24008;SDS011;12217;50.792;4.372;2023-05-10T07:12:44;10.18;;;6.90;;
24008;SDS011;12217;50.792;4.372;2023-05-10T07:15:09;9.85;;;7.57;;
24008;SDS011;12217;50.792;4.372;2023-05-10T07:17:35;11.10;;;7.55;;
24008;SDS011;12217;50.792;4.372;2023-05-10T07:20:01;12.63;;;8.30;;
24008;SDS011;12217;50.792;4.372;2023-05-10T07:22:27;13.88;;;8.40;;
24008;SDS011;12217;50.792;4.372;2023-05-10T07:24:52;15.55;;;8.95;;
24008;SDS011;12217;50.792;4.372;2023-05-10T07:27:18;11.95;;;8.15;;
24008;SDS011;12217;50.792;4.372;2023-05-10T07:29:43;13.68;;;8.32;;
24008;SDS011;12217;50.792;4.372;2023-05-10T07:32:09;12.90;;;8.20;;
24008;SDS011;12217;50.792;4.372;2023-05-10T07:34:35;13.43;;;8.77;;
24008;SDS011;12217;50.792;4.372;2023-05-10T07:37:01;18.27;;;9.07;;
24008;SDS011;12217;50.792;4.372;2023-05-10T07:39:27;13.75;;;8.80;;
24008;SDS011;12217;50.792;4.372;2023-05-10T07:41:53;11.60;;;8.75;;
24008;SDS011;12217;50.792;4.372;2023-05-10T07:44:21;12.10;;;8.00;;
24008;SDS011;12217;50.792;4.372;2023-05-10T07:46:47;12.55;;;8.05;;
24008;SDS011;12217;50.792;4.372;2023-05-10T07:49:14;12.35;;;8.10;;
24008;SDS011;12217;50.792;4.372;2023-05-10T07:51:39;13.13;;;8.13;;
24008;SDS011;12217;50.792;4.372;2023-05-10T07:54:05;13.95;;;8.32;;
24008;SDS011;12217;50.792;4.372;2023-05-10T07:56:31;12.63;;;8.38;;
24008;SDS011;12217;50.792;4.372;2023-05-10T07:58:58;11.10;;;7.30;;
24008;SDS011;12217;50.792;4.372;2023-05-10T08:01:24;9.43;;;6.70;;
24008;SDS011;12217;50.792;4.372;2023-05-10T08:03:50;10.52;;;6.05;;
24008;SDS011;12217;50.792;4.372;2023-05-10T08:06:18;8.18;;;5.93;;
24008;SDS011;12217;50.792;4.372;2023-05-10T08:08:45;6.70;;;6.00;;
24008;SDS011;12217;50.792;4.372;2023-05-10T08:11:14;8.80;;;5.57;;
24008;SDS011;12217;50.792;4.372;2023-05-10T08:13:41;6.10;;;5.30;;
24008;SDS011;12217;50.792;4.372;2023-05-10T08:16:06;7.57;;;5.43;;
24008;SDS011;12217;50.792;4.372;2023-05-10T08:18:32;6.82;;;4.95;;
24008;SDS011;12217;50.792;4.372;2023-05-10T08:20:58;7.60;;;4.80;;
24008;SDS011;12217;50.792;4.372;2023-05-10T08:23:23;5.28;;;4.68;;
24008;SDS011;12217;50.792;4.372;2023-05-10T08:25:49;6.65;;;5.43;;
24008;SDS011;12217;50.792;4.372;2023-05-10T08:28:14;6.47;;;4.75;;
24008;SDS011;12217;50.792;4.372;2023-05-10T08:30:40;9.73;;;5.32;;
24008;SDS011;12217;50.792;4.372;2023-05-10T08:33:06;7.68;;;4.82;;
24008;SDS011;12217;50.792;4.372;2023-05-10T08:35:31;6.93;;;4.78;;
24008;SDS011;12217;50.792;4.372;2023-05-10T08:37:58;6.68;;;4.80;;
24008;SDS011;12217;50.792;4.372;2023-05-10T08:40:23;6.25;;;4.93;;
24008;SDS011;12217;50.792;4.372;2023-05-10T08:43:01;6.40;;;4.78;;
24008;SDS011;12217;50.792;4.372;2023-05-10T08:45:32;9.02;;;5.20;;
24008;SDS011;12217;50.792;4.372;2023-05-10T08:48:01;6.30;;;5.68;;
24008;SDS011;12217;50.792;4.372;2023-05-10T08:50:29;7.53;;;5.28;;
24008;SDS011;12217;50.792;4.372;2023-05-10T08:52:57;6.68;;;4.93;;
24008;SDS011;12217;50.792;4.372;2023-05-10T08:55:26;8.05;;;5.78;;
24008;SDS011;12217;50.792;4.372;2023-05-10T08:57:52;9.63;;;5.97;;
24008;SDS011;12217;50.792;4.372;2023-05-10T09:00:18;9.70;;;6.07;;
24008;SDS011;12217;50.792;4.372;2023-05-10T09:02:44;9.77;;;6.45;;
24008;SDS011;12217;50.792;4.372;2023-05-10T09:05:13;11.80;;;6.45;;
24008;SDS011;12217;50.792;4.372;2023-05-10T09:07:40;7.20;;;5.80;;
24008;SDS011;12217;50.792;4.372;2023-05-10T09:10:06;9.00;;;6.05;;
24008;SDS011;12217;50.792;4.372;2023-05-10T09:12:34;9.75;;;6.95;;
24008;SDS011;12217;50.792;4.372;2023-05-10T09:15:00;6.78;;;6.00;;
24008;SDS011;12217;50.792;4.372;2023-05-10T09:17:27;7.65;;;6.07;;
24008;SDS011;12217;50.792;4.372;2023-05-10T09:20:01;8.60;;;6.30;;
24008;SDS011;12217;50.792;4.372;2023-05-10T09:22:29;7.38;;;6.60;;
24008;SDS011;12217;50.792;4.372;2023-05-10T09:25:05;8.02;;;6.68;;
24008;SDS011;12217;50.792;4.372;2023-05-10T09:27:40;9.95;;;6.63;;
24008;SDS011;12217;50.792;4.372;2023-05-10T09:30:09;8.63;;;6.45;;
24008;SDS011;12217;50.792;4.372;2023-05-10T09:32:39;7.97;;;6.10;;
24008;SDS011;12217;50.792;4.372;2023-05-10T09:37:45;5.93;;;5.32;;
24008;SDS011;12217;50.792;4.372;2023-05-10T09:42:40;6.72;;;5.68;;
24008;SDS011;12217;50.792;4.372;2023-05-10T09:45:07;6.97;;;5.82;;
24008;SDS011;12217;50.792;4.372;2023-05-10T09:47:34;6.65;;;5.95;;
24008;SDS011;12217;50.792;4.372;2023-05-10T09:50:00;6.78;;;5.60;;
24008;SDS011;12217;50.792;4.372;2023-05-10T09:52:30;6.15;;;5.55;;
24008;SDS011;12217;50.792;4.372;2023-05-10T09:55:10;5.65;;;5.05;;
24008;SDS011;12217;50.792;4.372;2023-05-10T09:57:35;9.52;;;5.70;;
24008;SDS011;12217;50.792;4.372;2023-05-10T10:00:01;6.10;;;4.85;;
24008;SDS011;12217;50.792;4.372;2023-05-10T10:02:29;5.40;;;4.90;;
24008;SDS011;12217;50.792;4.372;2023-05-10T10:04:56;6.72;;;5.47;;
24008;SDS011;12217;50.792;4.372;2023-05-10T10:07:22;5.93;;;5.32;;
24008;SDS011;12217;50.792;4.372;2023-05-10T10:09:52;7.55;;;5.40;;
24008;SDS011;12217;50.792;4.372;2023-05-10T10:12:18;5.57;;;5.07;;
24008;SDS011;12217;50.792;4.372;2023-05-10T10:14:48;6.13;;;5.18;;
24008;SDS011;12217;50.792;4.372;2023-05-10T10:17:15;4.40;;;4.00;;
24008;SDS011;12217;50.792;4.372;2023-05-10T10:19:41;5.20;;;4.70;;
24008;SDS011;12217;50.792;4.372;2023-05-10T10:22:07;5.50;;;5.00;;
24008;SDS011;12217;50.792;4.372;2023-05-10T10:24:35;5.80;;;4.97;;
24008;SDS011;12217;50.792;4.372;2023-05-10T10:27:07;6.43;;;4.63;;
24008;SDS011;12217;50.792;4.372;2023-05-10T10:29:58;5.95;;;4.60;;
24008;SDS011;12217;50.792;4.372;2023-05-10T10:35:14;5.05;;;4.55;;
24008;SDS011;12217;50.792;4.372;2023-05-10T10:37:42;5.45;;;4.95;;
24008;SDS011;12217;50.792;4.372;2023-05-10T10:40:25;5.43;;;4.40;;
24008;SDS011;12217;50.792;4.372;2023-05-10T10:42:55;6.80;;;4.90;;
24008;SDS011;12217;50.792;4.372;2023-05-10T10:45:21;6.85;;;5.25;;
24008;SDS011;12217;50.792;4.372;2023-05-10T10:47:48;7.15;;;5.32;;
24008;SDS011;12217;50.792;4.372;2023-05-10T10:50:18;6.30;;;5.25;;
24008;SDS011;12217;50.792;4.372;2023-05-10T10:52:44;7.20;;;6.50;;
24008;SDS011;12217;50.792;4.372;2023-05-10T10:55:11;7.45;;;5.85;;
24008;SDS011;12217;50.792;4.372;2023-05-10T10:57:45;8.02;;;5.70;;
24008;SDS011;12217;50.792;4.372;2023-05-10T11:02:54;8.30;;;6.68;;
24008;SDS011;12217;50.792;4.372;2023-05-10T11:10:39;6.32;;;5.72;;
24008;SDS011;12217;50.792;4.372;2023-05-10T11:13:13;7.47;;;5.97;;
24008;SDS011;12217;50.792;4.372;2023-05-10T11:15:39;6.72;;;5.97;;
24008;SDS011;12217;50.792;4.372;2023-05-10T11:18:31;6.15;;;5.55;;
24008;SDS011;12217;50.792;4.372;2023-05-10T11:20:57;7.05;;;6.00;;
24008;SDS011;12217;50.792;4.372;2023-05-10T11:24:12;6.40;;;5.50;;
24008;SDS011;12217;50.792;4.372;2023-05-10T11:26:13;7.15;;;5.50;;
24008;SDS011;12217;50.792;4.372;2023-05-10T11:28:48;4.88;;;4.47;;
24008;SDS011;12217;50.792;4.372;2023-05-10T11:31:15;6.43;;;4.97;;
24008;SDS011;12217;50.792;4.372;2023-05-10T11:33:51;6.28;;;4.82;;
24008;SDS011;12217;50.792;4.372;2023-05-10T11:36:19;5.90;;;4.45;;
24008;SDS011;12217;50.792;4.372;2023-05-10T11:38:47;5.55;;;5.05;;
24008;SDS011;12217;50.792;4.372;2023-05-10T11:41:13;5.50;;;5.00;;
24008;SDS011;12217;50.792;4.372;2023-05-10T11:43:40;6.55;;;4.47;;
24008;SDS011;12217;50.792;4.372;2023-05-10T11:46:06;5.25;;;4.78;;
24008;SDS011;12217;50.792;4.372;2023-05-10T11:48:33;4.43;;;4.03;;
24008;SDS011;12217;50.792;4.372;2023-05-10T11:51:00;4.50;;;4.10;;
24008;SDS011;12217;50.792;4.372;2023-05-10T11:53:27;5.13;;;4.47;;
24008;SDS011;12217;50.792;4.372;2023-05-10T11:55:54;5.00;;;4.57;;
24008;SDS011;12217;50.792;4.372;2023-05-10T11:58:20;6.38;;;4.50;;
24008;SDS011;12217;50.792;4.372;2023-05-10T12:00:48;5.45;;;4.32;;
24008;SDS011;12217;50.792;4.372;2023-05-10T12:03:14;5.63;;;4.35;;
24008;SDS011;12217;50.792;4.372;2023-05-10T12:05:40;4.88;;;4.38;;
24008;SDS011;12217;50.792;4.372;2023-05-10T12:08:13;5.70;;;4.78;;
24008;SDS011;12217;50.792;4.372;2023-05-10T12:10:40;7.18;;;4.88;;
24008;SDS011;12217;50.792;4.372;2023-05-10T12:13:10;6.95;;;4.88;;
24008;SDS011;12217;50.792;4.372;2023-05-10T12:18:03;6.30;;;5.40;;
24008;SDS011;12217;50.792;4.372;2023-05-10T12:20:30;7.68;;;5.07;;
24008;SDS011;12217;50.792;4.372;2023-05-10T12:22:57;6.28;;;5.35;;
24008;SDS011;12217;50.792;4.372;2023-05-10T12:25:24;6.15;;;5.50;;
24008;SDS011;12217;50.792;4.372;2023-05-10T12:27:58;5.97;;;5.38;;
24008;SDS011;12217;50.792;4.372;2023-05-10T12:30:28;6.85;;;6.15;;
24008;SDS011;12217;50.792;4.372;2023-05-10T12:32:59;6.50;;;5.90;;
24008;SDS011;12217;50.792;4.372;2023-05-10T12:35:45;5.25;;;4.75;;
24008;SDS011;12217;50.792;4.372;2023-05-10T12:40:50;5.28;;;4.78;;
24008;SDS011;12217;50.792;4.372;2023-05-10T12:43:16;6.22;;;5.50;;
24008;SDS011;12217;50.792;4.372;2023-05-10T12:45:41;7.78;;;6.53;;
24008;SDS011;12217;50.792;4.372;2023-05-10T12:48:07;8.95;;;6.30;;
24008;SDS011;12217;50.792;4.372;2023-05-10T12:50:32;9.00;;;7.57;;
24008;SDS011;12217;50.792;4.372;2023-05-10T12:52:58;6.65;;;6.05;;
24008;SDS011;12217;50.792;4.372;2023-05-10T12:55:24;11.70;;;6.07;;
24008;SDS011;12217;50.792;4.372;2023-05-10T12:57:50;10.75;;;6.25;;
24008;SDS011;12217;50.792;4.372;2023-05-10T13:00:15;8.68;;;5.78;;
24008;SDS011;12217;50.792;4.372;2023-05-10T13:02:41;7.28;;;6.00;;
24008;SDS011;12217;50.792;4.372;2023-05-10T13:05:07;6.28;;;5.57;;
24008;SDS011;12217;50.792;4.372;2023-05-10T13:07:33;6.95;;;6.22;;
24008;SDS011;12217;50.792;4.372;2023-05-10T13:09:58;6.18;;;5.28;;
24008;SDS011;12217;50.792;4.372;2023-05-10T13:12:24;6.13;;;4.90;;
24008;SDS011;12217;50.792;4.372;2023-05-10T13:14:49;6.20;;;4.45;;
24008;SDS011;12217;50.792;4.372;2023-05-10T13:17:15;7.07;;;5.72;;
24008;SDS011;12217;50.792;4.372;2023-05-10T13:19:41;8.07;;;5.57;;
24008;SDS011;12217;50.792;4.372;2023-05-10T13:22:06;6.10;;;5.50;;
24008;SDS011;12217;50.792;4.372;2023-05-10T13:24:32;5.50;;;5.00;;
24008;SDS011;12217;50.792;4.372;2023-05-10T13:26:57;5.05;;;4.50;;
24008;SDS011;12217;50.792;4.372;2023-05-10T13:29:23;7.25;;;4.88;;
24008;SDS011;12217;50.792;4.372;2023-05-10T13:31:49;4.50;;;3.72;;
24008;SDS011;12217;50.792;4.372;2023-05-10T13:34:15;4.40;;;3.88;;
24008;SDS011;12217;50.792;4.372;2023-05-10T13:36:40;6.97;;;4.80;;
24008;SDS011;12217;50.792;4.372;2023-05-10T13:39:07;8.25;;;5.88;;
24008;SDS011;12217;50.792;4.372;2023-05-10T13:41:33;6.43;;;5.82;;
24008;SDS011;12217;50.792;4.372;2023-05-10T13:43:59;8.98;;;6.00;;
24008;SDS011;12217;50.792;4.372;2023-05-10T13:46:24;8.73;;;6.85;;
24008;SDS011;12217;50.792;4.372;2023-05-10T13:48:50;11.00;;;6.55;;
24008;SDS011;12217;50.792;4.372;2023-05-10T13:51:15;7.10;;;6.40;;
24008;SDS011;12217;50.792;4.372;2023-05-10T13:53:41;9.32;;;6.63;;
24008;SDS011;12217;50.792;4.372;2023-05-10T13:56:07;8.05;;;6.18;;
24008;SDS011;12217;50.792;4.372;2023-05-10T13:58:32;10.45;;;8.38;;
24008;SDS011;12217;50.792;4.372;2023-05-10T14:00:58;11.02;;;8.63;;
24008;SDS011;12217;50.792;4.372;2023-05-10T14:03:23;10.52;;;9.10;;
24008;SDS011;12217;50.792;4.372;2023-05-10T14:05:49;11.07;;;8.95;;
24008;SDS011;12217;50.792;4.372;2023-05-10T14:08:15;11.45;;;8.32;;
24008;SDS011;12217;50.792;4.372;2023-05-10T14:10:40;10.05;;;8.48;;
24008;SDS011;12217;50.792;4.372;2023-05-10T14:13:06;12.35;;;10.32;;
24008;SDS011;12217;50.792;4.372;2023-05-10T14:15:32;10.88;;;9.27;;
24008;SDS011;12217;50.792;4.372;2023-05-10T14:17:58;9.40;;;8.35;;
24008;SDS011;12217;50.792;4.372;2023-05-10T14:20:24;11.32;;;10.10;;
24008;SDS011;12217;50.792;4.372;2023-05-10T14:22:49;12.82;;;9.30;;
24008;SDS011;12217;50.792;4.372;2023-05-10T14:25:15;9.98;;;8.70;;
24008;SDS011;12217;50.792;4.372;2023-05-10T14:27:41;12.10;;;10.63;;
24008;SDS011;12217;50.792;4.372;2023-05-10T14:30:07;14.80;;;11.02;;
24008;SDS011;12217;50.792;4.372;2023-05-10T14:32:33;12.82;;;10.23;;
24008;SDS011;12217;50.792;4.372;2023-05-10T14:34:58;14.20;;;9.60;;
24008;SDS011;12217;50.792;4.372;2023-05-10T14:37:24;13.05;;;10.60;;
24008;SDS011;12217;50.792;4.372;2023-05-10T14:39:51;13.27;;;9.82;;
24008;SDS011;12217;50.792;4.372;2023-05-10T14:42:17;16.85;;;10.45;;
24008;SDS011;12217;50.792;4.372;2023-05-10T14:44:42;13.40;;;10.32;;
24008;SDS011;12217;50.792;4.372;2023-05-10T14:47:08;13.68;;;10.30;;
24008;SDS011;12217;50.792;4.372;2023-05-10T14:49:34;12.18;;;10.38;;
24008;SDS011;12217;50.792;4.372;2023-05-10T14:52:00;17.10;;;10.65;;
24008;SDS011;12217;50.792;4.372;2023-05-10T14:54:25;14.48;;;12.15;;
24008;SDS011;12217;50.792;4.372;2023-05-10T14:56:52;22.42;;;12.00;;
24008;SDS011;12217;50.792;4.372;2023-05-10T14:59:17;14.45;;;12.45;;
24008;SDS011;12217;50.792;4.372;2023-05-10T15:01:43;15.18;;;12.57;;
24008;SDS011;12217;50.792;4.372;2023-05-10T15:04:09;21.27;;;12.85;;
24008;SDS011;12217;50.792;4.372;2023-05-10T15:06:34;19.35;;;12.82;;
24008;SDS011;12217;50.792;4.372;2023-05-10T15:09:00;14.90;;;12.18;;
24008;SDS011;12217;50.792;4.372;2023-05-10T15:11:28;19.85;;;13.02;;
24008;SDS011;12217;50.792;4.372;2023-05-10T15:13:54;14.70;;;12.35;;
24008;SDS011;12217;50.792;4.372;2023-05-10T15:16:20;13.77;;;12.18;;